Avery, Idaho
Current Conditions -  °F | °C
As of 11:53 AM on Wednesday 26 Nov 2014 (Local Time) from KMLP Reporting Station
Light Rain Light Rain  
Wind Chill: 28°   Ceiling: 100
Heat Index: 34°   Visibility: 0mi
Dew Point: 34°   Wind: 7mph
Humidity: 100%   Direction: NA
Pressure: 30.11"   Gusts: NA
Location:  47.25°N, 115.81°W
Report Text: KMLP 261953Z AUTO VRB06KT M1/4SM -RA FG VV001 01/01 A3011 RMK AO2 SLP173 P0000 T00110011
Loading
Personal Weather Stations






























Interactive Weather Map New forecast layout! Learn more

10-Day Weather Forecast

Advertisements
Track Severe Weather on mobile